sensor_id;sensor_type;location;lat;lon;timestamp;pressure;altitude;pressure_sealevel;temperature;humidity
66668;BME280;57205;51.438;-2.006;2023-09-19T00:00:06;100123.06;;;12.57;100.00
66668;BME280;57205;51.438;-2.006;2023-09-19T00:02:33;100130.84;;;12.59;100.00
66668;BME280;57205;51.438;-2.006;2023-09-19T00:04:59;100133.81;;;12.57;100.00
66668;BME280;57205;51.438;-2.006;2023-09-19T00:07:28;100131.63;;;12.59;100.00
66668;BME280;57205;51.438;-2.006;2023-09-19T00:09:54;100126.53;;;12.58;100.00
66668;BME280;57205;51.438;-2.006;2023-09-19T00:12:20;100127.84;;;12.60;100.00
66668;BME280;57205;51.438;-2.006;2023-09-19T00:14:45;100125.69;;;12.62;100.00
66668;BME280;57205;51.438;-2.006;2023-09-19T00:17:11;100131.06;;;12.62;100.00
66668;BME280;57205;51.438;-2.006;2023-09-19T00:19:36;100125.69;;;12.62;100.00
66668;BME280;57205;51.438;-2.006;2023-09-19T00:22:04;100128.88;;;12.64;100.00
66668;BME280;57205;51.438;-2.006;2023-09-19T00:24:30;100134.84;;;12.61;100.00
66668;BME280;57205;51.438;-2.006;2023-09-19T00:26:56;100135.41;;;12.58;100.00
66668;BME280;57205;51.438;-2.006;2023-09-19T00:29:25;100139.47;;;12.56;100.00
66668;BME280;57205;51.438;-2.006;2023-09-19T00:31:54;100140.53;;;12.55;100.00
66668;BME280;57205;51.438;-2.006;2023-09-19T00:34:20;100139.75;;;12.54;100.00
66668;BME280;57205;51.438;-2.006;2023-09-19T00:36:45;100135.75;;;12.52;100.00
66668;BME280;57205;51.438;-2.006;2023-09-19T00:39:11;100142.41;;;12.54;100.00
66668;BME280;57205;51.438;-2.006;2023-09-19T00:41:36;100135.25;;;12.50;100.00
66668;BME280;57205;51.438;-2.006;2023-09-19T00:44:02;100128.56;;;12.47;100.00
66668;BME280;57205;51.438;-2.006;2023-09-19T00:46:30;100127.97;;;12.50;100.00
66668;BME280;57205;51.438;-2.006;2023-09-19T00:48:56;100125.38;;;12.45;100.00
66668;BME280;57205;51.438;-2.006;2023-09-19T00:51:22;100114.41;;;12.42;100.00
66668;BME280;57205;51.438;-2.006;2023-09-19T00:53:48;100113.59;;;12.41;100.00
66668;BME280;57205;51.438;-2.006;2023-09-19T00:56:15;100117.09;;;12.42;100.00
66668;BME280;57205;51.438;-2.006;2023-09-19T00:58:44;100121.88;;;12.45;100.00
66668;BME280;57205;51.438;-2.006;2023-09-19T01:01:09;100120.81;;;12.46;100.00
66668;BME280;57205;51.438;-2.006;2023-09-19T01:03:37;100115.16;;;12.47;100.00
66668;BME280;57205;51.438;-2.006;2023-09-19T01:06:03;100109.19;;;12.50;100.00
66668;BME280;57205;51.438;-2.006;2023-09-19T01:08:28;100122.06;;;12.53;100.00
66668;BME280;57205;51.438;-2.006;2023-09-19T01:11:09;100117.72;;;12.57;100.00
66668;BME280;57205;51.438;-2.006;2023-09-19T01:14:15;100118.72;;;12.61;100.00
66668;BME280;57205;51.438;-2.006;2023-09-19T01:17:09;100111.16;;;12.63;100.00
66668;BME280;57205;51.438;-2.006;2023-09-19T01:19:58;100111.09;;;12.68;100.00
66668;BME280;57205;51.438;-2.006;2023-09-19T01:25:42;100106.31;;;12.65;100.00
66668;BME280;57205;51.438;-2.006;2023-09-19T01:28:31;100109.00;;;12.65;100.00
66668;BME280;57205;51.438;-2.006;2023-09-19T01:31:02;100102.63;;;12.61;100.00
66668;BME280;57205;51.438;-2.006;2023-09-19T01:33:53;100097.53;;;12.60;100.00
66668;BME280;57205;51.438;-2.006;2023-09-19T01:36:16;100103.19;;;12.58;100.00
66668;BME280;57205;51.438;-2.006;2023-09-19T01:38:42;100114.81;;;12.54;100.00
66668;BME280;57205;51.438;-2.006;2023-09-19T01:41:11;100107.53;;;12.54;100.00
66668;BME280;57205;51.438;-2.006;2023-09-19T01:43:45;100110.50;;;12.53;100.00
66668;BME280;57205;51.438;-2.006;2023-09-19T01:48:43;100107.09;;;12.47;100.00
66668;BME280;57205;51.438;-2.006;2023-09-19T01:51:21;100106.88;;;12.44;100.00
66668;BME280;57205;51.438;-2.006;2023-09-19T01:54:04;100118.94;;;12.46;100.00
66668;BME280;57205;51.438;-2.006;2023-09-19T01:56:53;100121.88;;;12.45;100.00
66668;BME280;57205;51.438;-2.006;2023-09-19T01:59:30;100116.81;;;12.43;100.00
66668;BME280;57205;51.438;-2.006;2023-09-19T02:01:59;100127.25;;;12.45;100.00
66668;BME280;57205;51.438;-2.006;2023-09-19T02:04:26;100116.50;;;12.45;100.00
66668;BME280;57205;51.438;-2.006;2023-09-19T02:06:52;100115.22;;;12.42;100.00
66668;BME280;57205;51.438;-2.006;2023-09-19T02:09:18;100111.44;;;12.43;100.00
66668;BME280;57205;51.438;-2.006;2023-09-19T02:11:43;100123.28;;;12.42;100.00
66668;BME280;57205;51.438;-2.006;2023-09-19T02:14:09;100113.59;;;12.41;100.00
66668;BME280;57205;51.438;-2.006;2023-09-19T02:16:35;100120.28;;;12.44;100.00
66668;BME280;57205;51.438;-2.006;2023-09-19T02:19:00;100111.00;;;12.36;100.00
66668;BME280;57205;51.438;-2.006;2023-09-19T02:21:26;100113.69;;;12.36;100.00
66668;BME280;57205;51.438;-2.006;2023-09-19T02:23:55;100112.63;;;12.37;100.00
66668;BME280;57205;51.438;-2.006;2023-09-19T02:26:21;100114.50;;;12.37;100.00
66668;BME280;57205;51.438;-2.006;2023-09-19T02:28:47;100113.69;;;12.36;100.00
66668;BME280;57205;51.438;-2.006;2023-09-19T02:31:12;100115.03;;;12.34;100.00
66668;BME280;57205;51.438;-2.006;2023-09-19T02:33:37;100104.81;;;12.36;100.00
66668;BME280;57205;51.438;-2.006;2023-09-19T02:36:04;100103.75;;;12.37;100.00
66668;BME280;57205;51.438;-2.006;2023-09-19T02:38:30;100104.31;;;12.34;100.00
66668;BME280;57205;51.438;-2.006;2023-09-19T02:40:56;100100.03;;;12.33;100.00
66668;BME280;57205;51.438;-2.006;2023-09-19T02:43:22;100103.03;;;12.31;100.00
66668;BME280;57205;51.438;-2.006;2023-09-19T02:45:48;100100.03;;;12.33;100.00
66668;BME280;57205;51.438;-2.006;2023-09-19T02:48:20;100106.78;;;12.30;100.00
66668;BME280;57205;51.438;-2.006;2023-09-19T02:50:52;100097.38;;;12.33;100.00
66668;BME280;57205;51.438;-2.006;2023-09-19T02:53:17;100098.94;;;12.34;100.00
66668;BME280;57205;51.438;-2.006;2023-09-19T02:55:44;100093.31;;;12.35;100.00
66668;BME280;57205;51.438;-2.006;2023-09-19T02:58:09;100083.66;;;12.34;100.00
66668;BME280;57205;51.438;-2.006;2023-09-19T03:00:39;100077.47;;;12.34;100.00
66668;BME280;57205;51.438;-2.006;2023-09-19T03:03:07;100067.25;;;12.36;100.00
66668;BME280;57205;51.438;-2.006;2023-09-19T03:05:34;100057.63;;;12.35;100.00
66668;BME280;57205;51.438;-2.006;2023-09-19T03:07:59;100056.53;;;12.36;100.00
66668;BME280;57205;51.438;-2.006;2023-09-19T03:10:28;100055.16;;;12.38;100.00
66668;BME280;57205;51.438;-2.006;2023-09-19T03:12:54;100045.75;;;12.41;100.00
66668;BME280;57205;51.438;-2.006;2023-09-19T03:15:20;100048.66;;;12.44;100.00
66668;BME280;57205;51.438;-2.006;2023-09-19T03:17:47;100036.81;;;12.45;100.00
66668;BME280;57205;51.438;-2.006;2023-09-19T03:20:13;100032.56;;;12.44;100.00
66668;BME280;57205;51.438;-2.006;2023-09-19T03:22:42;100031.75;;;12.44;100.00
66668;BME280;57205;51.438;-2.006;2023-09-19T03:25:08;100026.38;;;12.44;100.00
66668;BME280;57205;51.438;-2.006;2023-09-19T03:27:35;100019.66;;;12.46;100.00
66668;BME280;57205;51.438;-2.006;2023-09-19T03:30:00;100024.41;;;12.49;100.00
66668;BME280;57205;51.438;-2.006;2023-09-19T03:32:26;100022.53;;;12.50;100.00
66668;BME280;57205;51.438;-2.006;2023-09-19T03:34:51;100015.50;;;12.54;100.00
66668;BME280;57205;51.438;-2.006;2023-09-19T03:37:17;100006.06;;;12.56;100.00
66668;BME280;57205;51.438;-2.006;2023-09-19T03:39:43;99993.66;;;12.60;100.00
66668;BME280;57205;51.438;-2.006;2023-09-19T03:42:08;99990.09;;;12.65;100.00
66668;BME280;57205;51.438;-2.006;2023-09-19T03:44:34;99978.28;;;12.66;100.00
66668;BME280;57205;51.438;-2.006;2023-09-19T03:47:00;99975.78;;;12.69;100.00
66668;BME280;57205;51.438;-2.006;2023-09-19T03:49:25;99982.16;;;12.73;100.00
66668;BME280;57205;51.438;-2.006;2023-09-19T03:51:51;99968.44;;;12.75;100.00
66668;BME280;57205;51.438;-2.006;2023-09-19T03:54:16;99973.53;;;12.76;100.00
66668;BME280;57205;51.438;-2.006;2023-09-19T03:56:42;99974.03;;;12.78;100.00
66668;BME280;57205;51.438;-2.006;2023-09-19T03:59:09;99971.28;;;12.84;100.00
66668;BME280;57205;51.438;-2.006;2023-09-19T04:01:35;99965.41;;;12.82;100.00
66668;BME280;57205;51.438;-2.006;2023-09-19T04:04:00;99966.88;;;12.88;100.00
66668;BME280;57205;51.438;-2.006;2023-09-19T04:06:36;99958.25;;;12.91;100.00
66668;BME280;57205;51.438;-2.006;2023-09-19T04:09:03;99954.41;;;12.97;100.00
66668;BME280;57205;51.438;-2.006;2023-09-19T04:11:32;99951.13;;;13.00;100.00
66668;BME280;57205;51.438;-2.006;2023-09-19T04:13:58;99951.63;;;13.02;100.00
66668;BME280;57205;51.438;-2.006;2023-09-19T04:16:24;99964.47;;;13.05;100.00
66668;BME280;57205;51.438;-2.006;2023-09-19T04:18:49;99950.38;;;13.13;100.00
66668;BME280;57205;51.438;-2.006;2023-09-19T04:21:16;99952.44;;;13.16;100.00
66668;BME280;57205;51.438;-2.006;2023-09-19T04:23:42;99947.78;;;13.21;100.00
66668;BME280;57205;51.438;-2.006;2023-09-19T04:26:08;99939.91;;;13.25;100.00
66668;BME280;57205;51.438;-2.006;2023-09-19T04:28:33;99943.59;;;13.29;100.00
66668;BME280;57205;51.438;-2.006;2023-09-19T04:31:00;99936.84;;;13.31;100.00
66668;BME280;57205;51.438;-2.006;2023-09-19T04:33:25;99940.22;;;13.37;100.00
66668;BME280;57205;51.438;-2.006;2023-09-19T04:35:52;99939.13;;;13.38;100.00
66668;BME280;57205;51.438;-2.006;2023-09-19T04:38:18;99938.06;;;13.39;100.00
66668;BME280;57205;51.438;-2.006;2023-09-19T04:40:45;99939.81;;;13.43;100.00
66668;BME280;57205;51.438;-2.006;2023-09-19T04:43:11;99942.13;;;13.50;100.00
66668;BME280;57205;51.438;-2.006;2023-09-19T04:45:38;99942.13;;;13.50;100.00
66668;BME280;57205;51.438;-2.006;2023-09-19T04:48:04;99931.25;;;13.55;100.00
66668;BME280;57205;51.438;-2.006;2023-09-19T04:50:31;99937.63;;;13.59;100.00
66668;BME280;57205;51.438;-2.006;2023-09-19T04:52:57;99935.44;;;13.61;100.00
66668;BME280;57205;51.438;-2.006;2023-09-19T04:55:23;99930.56;;;13.63;100.00
66668;BME280;57205;51.438;-2.006;2023-09-19T04:57:50;99926.97;;;13.67;100.00
66668;BME280;57205;51.438;-2.006;2023-09-19T05:00:18;99934.25;;;13.67;100.00
66668;BME280;57205;51.438;-2.006;2023-09-19T05:02:45;99931.25;;;13.68;100.00
66668;BME280;57205;51.438;-2.006;2023-09-19T05:05:11;99930.84;;;13.75;100.00
66668;BME280;57205;51.438;-2.006;2023-09-19T05:07:39;99928.63;;;13.77;100.00
66668;BME280;57205;51.438;-2.006;2023-09-19T05:10:04;99933.44;;;13.80;100.00
66668;BME280;57205;51.438;-2.006;2023-09-19T05:12:34;99921.94;;;13.88;100.00
66668;BME280;57205;51.438;-2.006;2023-09-19T05:15:10;99922.75;;;13.89;100.00
66668;BME280;57205;51.438;-2.006;2023-09-19T05:17:35;99924.53;;;13.93;100.00
66668;BME280;57205;51.438;-2.006;2023-09-19T05:20:02;99917.25;;;13.94;100.00
66668;BME280;57205;51.438;-2.006;2023-09-19T05:22:42;99920.13;;;13.97;100.00
66668;BME280;57205;51.438;-2.006;2023-09-19T05:25:09;99915.72;;;14.01;100.00
66668;BME280;57205;51.438;-2.006;2023-09-19T05:27:36;99911.97;;;14.02;100.00
66668;BME280;57205;51.438;-2.006;2023-09-19T05:30:01;99907.97;;;14.00;100.00
66668;BME280;57205;51.438;-2.006;2023-09-19T05:32:27;99916.84;;;14.00;100.00
66668;BME280;57205;51.438;-2.006;2023-09-19T05:34:52;99914.34;;;14.04;100.00
66668;BME280;57205;51.438;-2.006;2023-09-19T05:37:22;99915.66;;;14.06;100.00
66668;BME280;57205;51.438;-2.006;2023-09-19T05:39:48;99896.19;;;14.09;100.00
66668;BME280;57205;51.438;-2.006;2023-09-19T05:42:14;99897.00;;;14.10;100.00
66668;BME280;57205;51.438;-2.006;2023-09-19T05:44:39;99892.09;;;14.12;100.00
66668;BME280;57205;51.438;-2.006;2023-09-19T05:47:05;99901.94;;;14.16;100.00
66668;BME280;57205;51.438;-2.006;2023-09-19T05:49:35;99888.97;;;14.18;100.00
66668;BME280;57205;51.438;-2.006;2023-09-19T05:52:06;99883.00;;;14.21;100.00
66668;BME280;57205;51.438;-2.006;2023-09-19T05:54:32;99874.81;;;14.26;100.00
66668;BME280;57205;51.438;-2.006;2023-09-19T05:57:00;99884.38;;;14.32;100.00
66668;BME280;57205;51.438;-2.006;2023-09-19T05:59:25;99865.22;;;14.34;100.00
66668;BME280;57205;51.438;-2.006;2023-09-19T06:01:50;99857.94;;;14.34;100.00
66668;BME280;57205;51.438;-2.006;2023-09-19T06:04:17;99863.53;;;14.38;100.00
66668;BME280;57205;51.438;-2.006;2023-09-19T06:06:44;99858.41;;;14.36;100.00
66668;BME280;57205;51.438;-2.006;2023-09-19T06:09:10;99869.69;;;14.38;100.00
66668;BME280;57205;51.438;-2.006;2023-09-19T06:11:35;99860.50;;;14.39;100.00
66668;BME280;57205;51.438;-2.006;2023-09-19T06:14:02;99846.44;;;14.42;100.00
66668;BME280;57205;51.438;-2.006;2023-09-19T06:16:29;99849.28;;;14.46;100.00
66668;BME280;57205;51.438;-2.006;2023-09-19T06:18:57;99848.38;;;14.50;100.00
66668;BME280;57205;51.438;-2.006;2023-09-19T06:21:23;99843.19;;;14.54;100.00
66668;BME280;57205;51.438;-2.006;2023-09-19T06:23:50;99846.03;;;14.57;100.00
66668;BME280;57205;51.438;-2.006;2023-09-19T06:26:17;99839.53;;;14.58;100.00
66668;BME280;57205;51.438;-2.006;2023-09-19T06:28:42;99833.06;;;14.59;100.00
66668;BME280;57205;51.438;-2.006;2023-09-19T06:31:09;99831.94;;;14.60;100.00
66668;BME280;57205;51.438;-2.006;2023-09-19T06:33:38;99838.00;;;14.66;100.00
66668;BME280;57205;51.438;-2.006;2023-09-19T06:36:07;99828.34;;;14.65;100.00
66668;BME280;57205;51.438;-2.006;2023-09-19T06:38:33;99825.03;;;14.68;100.00
66668;BME280;57205;51.438;-2.006;2023-09-19T06:41:02;99822.97;;;14.74;100.00
66668;BME280;57205;51.438;-2.006;2023-09-19T06:43:33;99820.66;;;14.81;100.00
66668;BME280;57205;51.438;-2.006;2023-09-19T06:46:02;99809.88;;;14.81;100.00
66668;BME280;57205;51.438;-2.006;2023-09-19T06:48:27;99804.19;;;14.82;100.00
66668;BME280;57205;51.438;-2.006;2023-09-19T06:50:55;99800.53;;;14.87;100.00
66668;BME280;57205;51.438;-2.006;2023-09-19T06:53:20;99811.03;;;14.88;100.00
66668;BME280;57205;51.438;-2.006;2023-09-19T06:55:49;99799.94;;;14.90;100.00
66668;BME280;57205;51.438;-2.006;2023-09-19T06:58:15;99790.91;;;14.94;100.00
66668;BME280;57205;51.438;-2.006;2023-09-19T07:00:42;99804.25;;;14.99;100.00
66668;BME280;57205;51.438;-2.006;2023-09-19T07:03:12;99804.25;;;15.08;100.00
66668;BME280;57205;51.438;-2.006;2023-09-19T07:05:53;99789.06;;;15.12;100.00
66668;BME280;57205;51.438;-2.006;2023-09-19T07:08:21;99800.47;;;15.26;100.00
66668;BME280;57205;51.438;-2.006;2023-09-19T07:10:47;99799.56;;;15.39;100.00
66668;BME280;57205;51.438;-2.006;2023-09-19T07:13:19;99795.63;;;15.53;100.00
66668;BME280;57205;51.438;-2.006;2023-09-19T07:15:45;99803.09;;;15.65;100.00
66668;BME280;57205;51.438;-2.006;2023-09-19T07:18:17;99798.34;;;15.79;100.00
66668;BME280;57205;51.438;-2.006;2023-09-19T07:20:44;99779.44;;;15.96;100.00
66668;BME280;57205;51.438;-2.006;2023-09-19T07:25:43;99774.66;;;16.10;100.00
66668;BME280;57205;51.438;-2.006;2023-09-19T07:28:10;99774.47;;;16.15;100.00
66668;BME280;57205;51.438;-2.006;2023-09-19T07:30:38;99787.78;;;16.20;100.00
66668;BME280;57205;51.438;-2.006;2023-09-19T07:33:05;99782.25;;;16.25;100.00
66668;BME280;57205;51.438;-2.006;2023-09-19T07:35:31;99758.25;;;16.32;100.00
66668;BME280;57205;51.438;-2.006;2023-09-19T07:37:57;99766.16;;;16.37;100.00
66668;BME280;57205;51.438;-2.006;2023-09-19T07:40:24;99747.25;;;16.37;100.00
66668;BME280;57205;51.438;-2.006;2023-09-19T07:42:52;99767.28;;;16.36;100.00
66668;BME280;57205;51.438;-2.006;2023-09-19T07:45:18;99764.59;;;16.36;100.00
66668;BME280;57205;51.438;-2.006;2023-09-19T07:47:47;99765.53;;;16.40;100.00
66668;BME280;57205;51.438;-2.006;2023-09-19T07:50:14;99767.56;;;16.43;100.00
66668;BME280;57205;51.438;-2.006;2023-09-19T07:52:41;99785.34;;;16.44;100.00
66668;BME280;57205;51.438;-2.006;2023-09-19T07:55:08;99774.72;;;16.56;100.00
66668;BME280;57205;51.438;-2.006;2023-09-19T07:57:35;99786.75;;;16.68;100.00
66668;BME280;57205;51.438;-2.006;2023-09-19T08:00:01;99778.38;;;16.90;100.00
66668;BME280;57205;51.438;-2.006;2023-09-19T08:02:29;99774.44;;;17.08;100.00
66668;BME280;57205;51.438;-2.006;2023-09-19T08:04:55;99781.72;;;17.16;100.00
66668;BME280;57205;51.438;-2.006;2023-09-19T08:07:22;99784.78;;;17.35;100.00
66668;BME280;57205;51.438;-2.006;2023-09-19T08:09:48;99774.03;;;17.47;100.00
66668;BME280;57205;51.438;-2.006;2023-09-19T08:12:14;99770.84;;;17.45;100.00
66668;BME280;57205;51.438;-2.006;2023-09-19T08:14:40;99762.00;;;17.36;100.00
66668;BME280;57205;51.438;-2.006;2023-09-19T08:17:08;99764.19;;;17.22;100.00
66668;BME280;57205;51.438;-2.006;2023-09-19T08:19:34;99760.09;;;17.16;100.00
66668;BME280;57205;51.438;-2.006;2023-09-19T08:22:00;99764.44;;;17.08;100.00
66668;BME280;57205;51.438;-2.006;2023-09-19T08:24:27;99759.56;;;17.02;100.00
66668;BME280;57205;51.438;-2.006;2023-09-19T08:26:57;99760.84;;;16.96;100.00
66668;BME280;57205;51.438;-2.006;2023-09-19T08:29:23;99755.78;;;16.94;100.00
66668;BME280;57205;51.438;-2.006;2023-09-19T08:31:56;99750.69;;;16.93;100.00
66668;BME280;57205;51.438;-2.006;2023-09-19T08:34:23;99747.34;;;16.96;100.00
66668;BME280;57205;51.438;-2.006;2023-09-19T08:36:53;99760.63;;;17.09;100.00
66668;BME280;57205;51.438;-2.006;2023-09-19T08:39:23;99752.19;;;17.31;100.00
66668;BME280;57205;51.438;-2.006;2023-09-19T08:41:48;99764.84;;;17.48;100.00
66668;BME280;57205;51.438;-2.006;2023-09-19T08:44:14;99760.31;;;17.73;100.00
66668;BME280;57205;51.438;-2.006;2023-09-19T08:46:41;99774.00;;;18.09;100.00
66668;BME280;57205;51.438;-2.006;2023-09-19T08:49:22;99779.69;;;18.28;100.00
66668;BME280;57205;51.438;-2.006;2023-09-19T08:51:59;99777.28;;;18.26;100.00
66668;BME280;57205;51.438;-2.006;2023-09-19T08:54:29;99788.56;;;18.16;100.00
66668;BME280;57205;51.438;-2.006;2023-09-19T08:57:00;99776.22;;;18.07;100.00
66668;BME280;57205;51.438;-2.006;2023-09-19T08:59:33;99772.69;;;17.94;100.00
66668;BME280;57205;51.438;-2.006;2023-09-19T09:02:00;99768.38;;;17.81;100.00
66668;BME280;57205;51.438;-2.006;2023-09-19T09:04:26;99766.72;;;17.68;100.00
66668;BME280;57205;51.438;-2.006;2023-09-19T09:06:54;99771.00;;;17.69;100.00
66668;BME280;57205;51.438;-2.006;2023-09-19T09:09:20;99769.38;;;17.56;100.00
66668;BME280;57205;51.438;-2.006;2023-09-19T09:11:48;99767.69;;;17.43;100.00
66668;BME280;57205;51.438;-2.006;2023-09-19T09:14:19;99771.25;;;17.35;100.00
66668;BME280;57205;51.438;-2.006;2023-09-19T09:16:45;99751.72;;;17.29;100.00
66668;BME280;57205;51.438;-2.006;2023-09-19T09:19:11;99757.66;;;17.23;100.00
66668;BME280;57205;51.438;-2.006;2023-09-19T09:21:39;99755.88;;;17.27;100.00
66668;BME280;57205;51.438;-2.006;2023-09-19T09:24:26;99750.72;;;17.63;100.00
66668;BME280;57205;51.438;-2.006;2023-09-19T09:26:53;99752.53;;;18.04;100.00
66668;BME280;57205;51.438;-2.006;2023-09-19T09:34:50;99733.47;;;18.81;100.00
66668;BME280;57205;51.438;-2.006;2023-09-19T09:37:17;99739.00;;;18.85;100.00
66668;BME280;57205;51.438;-2.006;2023-09-19T09:39:52;99744.88;;;18.87;100.00
66668;BME280;57205;51.438;-2.006;2023-09-19T09:42:30;99746.13;;;18.77;100.00
66668;BME280;57205;51.438;-2.006;2023-09-19T09:45:17;99752.00;;;18.79;100.00
66668;BME280;57205;51.438;-2.006;2023-09-19T09:47:48;99766.78;;;18.82;100.00
66668;BME280;57205;51.438;-2.006;2023-09-19T09:50:34;99759.88;;;18.84;100.00
66668;BME280;57205;51.438;-2.006;2023-09-19T09:53:22;99757.97;;;18.85;100.00
66668;BME280;57205;51.438;-2.006;2023-09-19T09:56:07;99766.44;;;18.71;100.00
66668;BME280;57205;51.438;-2.006;2023-09-19T09:58:34;99762.94;;;18.59;100.00
66668;BME280;57205;51.438;-2.006;2023-09-19T10:01:01;99756.72;;;18.58;100.00
66668;BME280;57205;51.438;-2.006;2023-09-19T10:03:40;99761.91;;;18.51;100.00
66668;BME280;57205;51.438;-2.006;2023-09-19T10:06:13;99775.56;;;18.55;100.00
66668;BME280;57205;51.438;-2.006;2023-09-19T10:08:58;99788.22;;;18.50;100.00
66668;BME280;57205;51.438;-2.006;2023-09-19T10:11:47;99783.00;;;18.45;100.00
66668;BME280;57205;51.438;-2.006;2023-09-19T10:14:16;99784.91;;;18.45;100.00
66668;BME280;57205;51.438;-2.006;2023-09-19T10:16:48;99784.16;;;18.44;100.00
66668;BME280;57205;51.438;-2.006;2023-09-19T10:22:12;99788.16;;;18.38;100.00
66668;BME280;57205;51.438;-2.006;2023-09-19T10:24:40;99787.59;;;18.33;100.00
66668;BME280;57205;51.438;-2.006;2023-09-19T10:27:06;99791.84;;;18.22;100.00
66668;BME280;57205;51.438;-2.006;2023-09-19T10:29:36;99787.44;;;18.17;100.00
66668;BME280;57205;51.438;-2.006;2023-09-19T10:32:05;99788.19;;;18.06;100.00
66668;BME280;57205;51.438;-2.006;2023-09-19T10:34:35;99788.97;;;18.06;100.00
66668;BME280;57205;51.438;-2.006;2023-09-19T10:37:02;99791.91;;;18.01;100.00
66668;BME280;57205;51.438;-2.006;2023-09-19T10:39:32;99784.00;;;17.96;100.00
66668;BME280;57205;51.438;-2.006;2023-09-19T10:42:02;99769.41;;;17.89;100.00
66668;BME280;57205;51.438;-2.006;2023-09-19T10:44:32;99789.13;;;17.89;100.00
66668;BME280;57205;51.438;-2.006;2023-09-19T10:46:59;99779.56;;;17.92;100.00
66668;BME280;57205;51.438;-2.006;2023-09-19T10:49:25;99787.56;;;17.88;100.00
66668;BME280;57205;51.438;-2.006;2023-09-19T10:51:55;99779.78;;;17.87;100.00
66668;BME280;57205;51.438;-2.006;2023-09-19T10:54:25;99785.53;;;17.85;100.00
66668;BME280;57205;51.438;-2.006;2023-09-19T10:56:52;99788.03;;;17.90;100.00
66668;BME280;57205;51.438;-2.006;2023-09-19T10:59:20;99780.56;;;17.87;100.00
66668;BME280;57205;51.438;-2.006;2023-09-19T11:01:56;99778.56;;;17.96;100.00
66668;BME280;57205;51.438;-2.006;2023-09-19T11:04:32;99772.72;;;18.06;100.00
66668;BME280;57205;51.438;-2.006;2023-09-19T11:07:12;99771.63;;;18.19;100.00
66668;BME280;57205;51.438;-2.006;2023-09-19T11:09:52;99772.25;;;18.37;100.00
66668;BME280;57205;51.438;-2.006;2023-09-19T11:26:45;99774.47;;;18.56;100.00
66668;BME280;57205;51.438;-2.006;2023-09-19T11:31:55;99746.25;;;18.69;100.00
66668;BME280;57205;51.438;-2.006;2023-09-19T11:39:40;99751.06;;;18.99;100.00
66668;BME280;57205;51.438;-2.006;2023-09-19T11:48:19;99750.06;;;18.92;100.00
66668;BME280;57205;51.438;-2.006;2023-09-19T11:50:45;99763.84;;;18.87;100.00
66668;BME280;57205;51.438;-2.006;2023-09-19T11:53:12;99755.38;;;18.76;100.00
66668;BME280;57205;51.438;-2.006;2023-09-19T11:55:39;99772.53;;;18.68;100.00
66668;BME280;57205;51.438;-2.006;2023-09-19T11:58:09;99769.84;;;18.56;100.00
66668;BME280;57205;51.438;-2.006;2023-09-19T12:00:37;99775.13;;;18.52;100.00
66668;BME280;57205;51.438;-2.006;2023-09-19T12:03:09;99770.84;;;18.52;100.00
66668;BME280;57205;51.438;-2.006;2023-09-19T12:05:36;99770.38;;;18.49;100.00
66668;BME280;57205;51.438;-2.006;2023-09-19T12:08:03;99778.84;;;18.60;100.00
66668;BME280;57205;51.438;-2.006;2023-09-19T12:10:32;99768.38;;;18.83;100.00
66668;BME280;57205;51.438;-2.006;2023-09-19T12:12:59;99771.53;;;18.85;100.00
66668;BME280;57205;51.438;-2.006;2023-09-19T12:15:25;99754.56;;;18.88;100.00
66668;BME280;57205;51.438;-2.006;2023-09-19T12:18:00;99752.41;;;18.93;100.00
66668;BME280;57205;51.438;-2.006;2023-09-19T12:20:41;99756.16;;;18.89;100.00
66668;BME280;57205;51.438;-2.006;2023-09-19T12:23:13;99752.66;;;18.88;100.00
66668;BME280;57205;51.438;-2.006;2023-09-19T12:25:43;99756.16;;;18.89;100.00
66668;BME280;57205;51.438;-2.006;2023-09-19T12:28:12;99760.47;;;18.78;100.00
66668;BME280;57205;51.438;-2.006;2023-09-19T12:30:38;99759.56;;;18.74;100.00
66668;BME280;57205;51.438;-2.006;2023-09-19T12:33:23;99778.53;;;18.62;100.00
66668;BME280;57205;51.438;-2.006;2023-09-19T12:35:51;99774.81;;;18.54;100.00
66668;BME280;57205;51.438;-2.006;2023-09-19T12:38:25;99785.47;;;18.38;100.00
66668;BME280;57205;51.438;-2.006;2023-09-19T12:40:57;99784.31;;;18.27;100.00
66668;BME280;57205;51.438;-2.006;2023-09-19T12:43:26;99787.53;;;18.21;100.00
66668;BME280;57205;51.438;-2.006;2023-09-19T12:45:53;99796.22;;;18.14;100.00
66668;BME280;57205;51.438;-2.006;2023-09-19T12:53:33;99788.22;;;18.18;100.00
66668;BME280;57205;51.438;-2.006;2023-09-19T12:56:01;99779.75;;;18.19;100.00
66668;BME280;57205;51.438;-2.006;2023-09-19T12:58:27;99782.00;;;18.17;100.00
66668;BME280;57205;51.438;-2.006;2023-09-19T13:00:55;99769.81;;;18.11;100.00
66668;BME280;57205;51.438;-2.006;2023-09-19T13:08:33;99779.97;;;18.14;100.00
66668;BME280;57205;51.438;-2.006;2023-09-19T13:13:48;99783.59;;;18.18;100.00
66668;BME280;57205;51.438;-2.006;2023-09-19T13:16:16;99773.88;;;18.17;100.00
66668;BME280;57205;51.438;-2.006;2023-09-19T13:18:54;99777.94;;;18.11;100.00
66668;BME280;57205;51.438;-2.006;2023-09-19T13:21:32;99778.41;;;18.13;100.00
66668;BME280;57205;51.438;-2.006;2023-09-19T13:24:22;99776.13;;;18.15;100.00
66668;BME280;57205;51.438;-2.006;2023-09-19T13:26:51;99773.66;;;18.10;100.00
66668;BME280;57205;51.438;-2.006;2023-09-19T13:29:16;99772.72;;;18.06;100.00
66668;BME280;57205;51.438;-2.006;2023-09-19T13:31:50;99766.97;;;18.08;100.00
66668;BME280;57205;51.438;-2.006;2023-09-19T13:34:18;99777.50;;;18.09;100.00
66668;BME280;57205;51.438;-2.006;2023-09-19T13:36:44;99770.47;;;18.08;100.00
66668;BME280;57205;51.438;-2.006;2023-09-19T13:39:14;99780.38;;;18.04;100.00
66668;BME280;57205;51.438;-2.006;2023-09-19T13:41:41;99785.69;;;18.01;100.00
66668;BME280;57205;51.438;-2.006;2023-09-19T13:44:08;99799.78;;;17.94;100.00